createdAt,value
2018-01-16T00:02:45.400Z,90.5
2018-01-16T00:07:45.239Z,90.2
2018-01-16T00:12:45.238Z,90.2
2018-01-16T00:17:45.329Z,90.5
2018-01-16T00:22:55.475Z,90.8
2018-01-16T00:27:45.636Z,90.6
2018-01-16T00:32:46.191Z,90.3
2018-01-16T00:37:47.497Z,90.4
2018-01-16T00:42:45.463Z,91.1
2018-01-16T00:47:45.488Z,90.3
2018-01-16T00:52:45.321Z,90.4
2018-01-16T00:57:45.192Z,89.9
2018-01-16T01:02:45.816Z,90.3
2018-01-16T01:07:45.390Z,90.2
2018-01-16T01:12:45.323Z,90.6
2018-01-16T01:17:45.194Z,90.5
2018-01-16T01:22:45.189Z,91.3
2018-01-16T01:27:45.357Z,91.4
2018-01-16T01:32:45.209Z,91.5
2018-01-16T01:37:45.350Z,91.4
2018-01-16T01:42:45.296Z,91.9
2018-01-16T01:47:45.226Z,91.7
2018-01-16T01:52:45.329Z,91.8
2018-01-16T01:57:45.236Z,91.9
2018-01-16T02:02:45.397Z,91.9
2018-01-16T02:07:45.321Z,91.8
2018-01-16T02:12:45.348Z,91.7
2018-01-16T02:17:45.387Z,92.1
2018-01-16T02:22:45.226Z,92.1
2018-01-16T02:27:45.435Z,92.6
2018-01-16T02:32:45.238Z,92.1
2018-01-16T02:37:45.232Z,91.9
2018-01-16T02:42:45.325Z,92.4
2018-01-16T02:47:45.455Z,92.3
2018-01-16T02:52:45.247Z,93
2018-01-16T02:57:45.230Z,93.3
2018-01-16T03:02:45.348Z,93.7
2018-01-16T03:07:45.351Z,93.7
2018-01-16T03:12:45.408Z,93.3
2018-01-16T03:17:46.166Z,93.1
2018-01-16T03:22:45.361Z,93.6
2018-01-16T03:27:45.396Z,92.8
2018-01-16T03:32:45.275Z,92.9
2018-01-16T03:37:45.474Z,92.1
2018-01-16T03:42:45.371Z,92.4
2018-01-16T03:47:45.280Z,92.8
2018-01-16T03:52:45.463Z,92.6
2018-01-16T03:57:45.281Z,92.7
2018-01-16T04:02:45.345Z,93.2
2018-01-16T04:07:45.285Z,92.6
2018-01-16T04:12:45.569Z,93
2018-01-16T04:17:45.419Z,92.9
2018-01-16T04:22:45.416Z,92.6
2018-01-16T04:27:45.459Z,92.3
2018-01-16T04:32:45.375Z,92.1
2018-01-16T04:37:45.292Z,92.7
2018-01-16T04:42:45.301Z,93
2018-01-16T04:47:45.331Z,92.8
2018-01-16T04:52:45.300Z,93.5
2018-01-16T04:57:45.397Z,93.8
2018-01-16T05:02:45.486Z,94.1
2018-01-16T05:07:45.383Z,93.7
2018-01-16T05:12:45.377Z,93.7
2018-01-16T05:17:50.181Z,93.3
2018-01-16T05:22:45.494Z,94.2
2018-01-16T05:27:45.415Z,94.4
2018-01-16T05:32:45.377Z,94.2
2018-01-16T05:37:45.498Z,93.6
2018-01-16T05:42:45.426Z,94.3
2018-01-16T05:47:45.349Z,94.5
2018-01-16T05:52:45.326Z,94.4
2018-01-16T05:57:45.332Z,94.5
2018-01-16T06:02:45.401Z,94.4
2018-01-16T06:07:45.338Z,95
2018-01-16T06:12:45.351Z,94.1
2018-01-16T06:17:45.344Z,94.8
2018-01-16T06:22:45.379Z,95.4
2018-01-16T06:27:45.343Z,94.5
2018-01-16T06:32:46.419Z,94.3
2018-01-16T06:37:47.688Z,94.6
2018-01-16T06:42:46.542Z,94
2018-01-16T06:47:46.425Z,93.8
2018-01-16T06:52:46.537Z,95.1
2018-01-16T06:57:46.511Z,94.5
2018-01-16T07:02:46.444Z,93.4
2018-01-16T07:07:46.624Z,94.8
2018-01-16T07:12:46.504Z,95.3
2018-01-16T07:17:46.728Z,95
2018-01-16T07:22:46.762Z,95.2
2018-01-16T07:27:46.435Z,95.3
2018-01-16T07:32:46.574Z,95
2018-01-16T07:37:46.723Z,94.4
2018-01-16T07:42:46.643Z,94.9
2018-01-16T07:47:46.587Z,93.9
2018-01-16T07:52:46.609Z,94.2
2018-01-16T07:57:46.537Z,94.7
2018-01-16T08:02:46.571Z,95.7
2018-01-16T08:07:46.454Z,95.5
2018-01-16T08:12:46.746Z,95.4
2018-01-16T08:17:46.582Z,96.4
2018-01-16T08:22:46.583Z,96.1
2018-01-16T08:27:46.611Z,95.5
2018-01-16T08:32:46.640Z,95.9
2018-01-16T08:37:46.660Z,95.4
2018-01-16T08:42:46.727Z,95.5
2018-01-16T08:47:46.623Z,95
2018-01-16T08:52:46.554Z,94.9
2018-01-16T08:57:46.587Z,94.8
2018-01-16T09:02:46.603Z,94.6
2018-01-16T09:07:46.646Z,95.6
2018-01-16T09:12:46.712Z,95.7
2018-01-16T09:17:46.603Z,96.4
2018-01-16T09:22:46.584Z,96
2018-01-16T09:27:46.667Z,96.8
2018-01-16T09:32:46.757Z,96.2
2018-01-16T09:37:46.500Z,96.2
2018-01-16T09:42:46.508Z,96.1
2018-01-16T09:47:46.691Z,96.6
2018-01-16T09:52:46.604Z,97.4
2018-01-16T09:57:46.532Z,97.9
2018-01-16T10:02:47.509Z,96.6
2018-01-16T10:07:48.193Z,98.1
2018-01-16T10:12:46.640Z,97.7
2018-01-16T10:17:46.549Z,97.7
2018-01-16T10:22:46.724Z,97.1
2018-01-16T10:27:46.747Z,97.3
2018-01-16T10:32:46.633Z,97.9
2018-01-16T10:37:46.686Z,97.4
2018-01-16T10:42:46.742Z,98.3
2018-01-16T10:47:46.560Z,97.2
2018-01-16T10:52:46.707Z,98.6
2018-01-16T10:57:46.748Z,98.1
2018-01-16T11:02:46.564Z,99
2018-01-16T11:07:46.659Z,99.3
2018-01-16T11:12:46.705Z,98.4
2018-01-16T11:17:46.585Z,97.9
2018-01-16T11:22:46.729Z,97.9
2018-01-16T11:27:46.667Z,98.2
2018-01-16T11:32:46.749Z,98.5
2018-01-16T11:37:46.758Z,98.6
2018-01-16T11:42:46.660Z,97.9
2018-01-16T11:47:46.587Z,98.3
2018-01-16T11:52:46.679Z,98.7
2018-01-16T11:57:46.888Z,98.5
2018-01-16T12:02:46.772Z,98.4
2018-01-16T12:07:46.746Z,98.5
2018-01-16T12:12:46.759Z,99.9
2018-01-16T12:17:46.706Z,99.9
2018-01-16T12:22:46.604Z,99.1
2018-01-16T12:27:46.741Z,98.6
2018-01-16T12:32:46.831Z,99.7
2018-01-16T12:37:46.833Z,98.9
2018-01-16T12:42:46.742Z,98.5
2018-01-16T12:47:46.781Z,98.8
2018-01-16T12:52:46.771Z,97.3
2018-01-16T12:57:46.723Z,97.6
2018-01-16T13:02:46.766Z,97.7
2018-01-16T13:07:46.633Z,97.5
2018-01-16T13:12:46.846Z,97.2
2018-01-16T13:17:46.635Z,97.1
2018-01-16T13:22:46.630Z,98.2
2018-01-16T13:27:46.803Z,98.8
2018-01-16T13:32:56.821Z,99.4
2018-01-16T13:37:46.735Z,100
2018-01-16T13:42:46.788Z,100
2018-01-16T13:47:46.654Z,99.9
2018-01-16T13:52:46.755Z,99.6
2018-01-16T13:57:46.651Z,99.6
2018-01-16T14:02:46.830Z,99
2018-01-16T14:07:46.869Z,99.5
2018-01-16T14:12:46.756Z,99.3
2018-01-16T14:17:46.814Z,100
2018-01-16T14:22:46.766Z,100
2018-01-16T14:27:46.838Z,100
2018-01-16T14:32:46.776Z,100
2018-01-16T14:37:46.825Z,100
2018-01-16T14:42:46.919Z,100
2018-01-16T14:47:46.885Z,100
2018-01-16T14:52:46.825Z,100
2018-01-16T14:57:46.697Z,100
2018-01-16T15:02:46.872Z,100
2018-01-16T15:07:46.689Z,100
2018-01-16T15:12:46.918Z,100
2018-01-16T15:17:56.922Z,100
2018-01-16T15:22:46.894Z,100
2018-01-16T15:27:46.974Z,100
2018-01-16T15:32:47.325Z,100
2018-01-16T15:37:46.717Z,100
2018-01-16T15:42:46.732Z,100
2018-01-16T15:47:48.253Z,100
2018-01-16T15:52:46.713Z,100
2018-01-16T15:57:46.773Z,100
2018-01-16T16:02:46.854Z,100
2018-01-16T16:07:46.986Z,100
2018-01-16T16:12:46.726Z,100
2018-01-16T16:17:46.824Z,99.8
2018-01-16T16:22:46.877Z,100
2018-01-16T16:27:46.723Z,100
2018-01-16T16:32:46.736Z,100
2018-01-16T16:37:47.188Z,100
2018-01-16T16:42:46.760Z,100
2018-01-16T16:47:46.947Z,100
2018-01-16T16:52:47.344Z,99.8
2018-01-16T16:57:46.793Z,100
2018-01-16T17:02:46.818Z,99.4
2018-01-16T17:07:46.753Z,98.9
2018-01-16T17:12:46.824Z,97.6
2018-01-16T17:17:46.813Z,96.5
2018-01-16T17:22:46.910Z,97
2018-01-16T17:27:47.033Z,95.7
2018-01-16T17:32:46.924Z,95.1
2018-01-16T17:37:47.408Z,95.1
2018-01-16T17:42:46.850Z,92.8
2018-01-16T17:47:46.998Z,92.6
2018-01-16T17:52:46.812Z,91.4
2018-01-16T17:57:46.848Z,91.4
2018-01-16T18:02:46.972Z,91.4
2018-01-16T18:07:47.086Z,90.2
2018-01-16T18:12:46.809Z,91
2018-01-16T18:17:48.136Z,90.6
2018-01-16T18:22:48.464Z,89.6
2018-01-16T18:27:48.320Z,89.4
2018-01-16T18:32:47.404Z,89.7
2018-01-16T18:37:47.098Z,88.3
2018-01-16T18:42:47.122Z,89.3
2018-01-16T18:47:48.709Z,88
2018-01-16T18:52:47.513Z,88.4
2018-01-16T18:57:46.915Z,88.9
2018-01-16T19:02:56.933Z,88.8
2018-01-16T19:07:47.724Z,88.3
2018-01-16T19:12:46.905Z,88.1
2018-01-16T19:17:46.891Z,87.8
2018-01-16T19:22:46.978Z,87.5
2018-01-16T19:27:46.897Z,87.3
2018-01-16T19:32:47.335Z,85.9
2018-01-16T19:37:46.944Z,85.7
2018-01-16T19:42:46.923Z,85.7
2018-01-16T19:47:46.928Z,85.5
2018-01-16T19:52:46.948Z,86.2
2018-01-16T19:57:46.961Z,85.9
2018-01-16T20:02:47.226Z,85.8
2018-01-16T20:07:47.354Z,85.1
2018-01-16T20:12:47.991Z,82.8
2018-01-16T20:17:47.413Z,83.6
2018-01-16T20:22:47.414Z,83.1
2018-01-16T20:27:58.688Z,81.5
2018-01-16T20:32:47.121Z,82.9
2018-01-16T20:37:47.792Z,81.8
2018-01-16T20:42:47.617Z,82.9
2018-01-16T20:47:46.951Z,81.9
2018-01-16T20:52:47.808Z,81.2
2018-01-16T20:57:47.008Z,79.9
2018-01-16T21:02:49.473Z,79
2018-01-16T21:07:47.962Z,79.3
2018-01-16T21:12:47.043Z,78.9
2018-01-16T21:17:47.645Z,79.5
2018-01-16T21:22:47.030Z,78.4
2018-01-16T21:27:47.248Z,78.8
2018-01-16T21:32:46.962Z,78.6
2018-01-16T21:37:47.192Z,75.6
2018-01-16T21:42:47.086Z,73.4
2018-01-16T21:47:47.010Z,75.2
2018-01-16T21:52:47.029Z,75.1
2018-01-16T21:57:47.028Z,76.5
2018-01-16T22:02:46.965Z,75.3
2018-01-16T22:07:47.217Z,77.7
2018-01-16T22:12:47.118Z,77.1
2018-01-16T22:17:47.038Z,78.2
2018-01-16T22:22:47.237Z,78.7
2018-01-16T22:27:47.478Z,80.4
2018-01-16T22:32:47.657Z,82.4
2018-01-16T22:37:47.183Z,84.2
2018-01-16T22:42:47.540Z,86.6
2018-01-16T22:47:46.991Z,88.8
2018-01-16T22:52:47.327Z,90.3
2018-01-16T22:57:47.639Z,91.3
2018-01-16T23:02:47.115Z,92.4
2018-01-16T23:07:47.303Z,93.2
2018-01-16T23:12:47.092Z,94
2018-01-16T23:17:46.948Z,94
2018-01-16T23:22:47.873Z,94.7
2018-01-16T23:27:47.124Z,94.9
2018-01-16T23:32:47.450Z,95
2018-01-16T23:37:47.409Z,93.9
2018-01-16T23:42:47.024Z,94.1
2018-01-16T23:47:47.319Z,94.7
2018-01-16T23:52:47.139Z,94.7
2018-01-16T23:57:47.045Z,95.1
